Time;durP1;ratioP1;P1;durP2;ratioP2;P2;SDS_P1;SDS_P2;PMS_P1;PMS_P2;Temp;Humidity;BMP_temperature;BMP_pressure;BME280_temperature;BME280_humidity;BME280_pressure;Samples;Min_cycle;Max_cycle;Signal;HPM_P1;HPM_P2
2023/01/18 00:00:45;;;;;;;27.58;15.40;;;0.50;41.90;;;;;;7364759;19;20018;-78
2023/01/18 00:03:17;;;;;;;26.15;14.13;;;0.40;42.30;;;;;;7368185;19;20014;-77
2023/01/18 00:05:47;;;;;;;23.60;13.38;;;0.50;42.50;;;;;;7365516;19;20019;-77
2023/01/18 00:08:18;;;;;;;24.98;13.45;;;0.40;41.40;;;;;;7365585;19;20010;-78
2023/01/18 00:10:48;;;;;;;24.20;13.75;;;0.40;42.30;;;;;;7390420;19;20014;-77
2023/01/18 00:13:18;;;;;;;25.02;12.85;;;0.50;42.10;;;;;;7366957;19;20017;-78
2023/01/18 00:15:47;;;;;;;23.23;12.48;;;0.50;42.30;;;;;;7368974;19;20482;-78
2023/01/18 00:18:20;;;;;;;23.75;14.02;;;0.40;41.10;;;;;;7367184;19;20035;-78
2023/01/18 00:20:50;;;;;;;22.92;13.63;;;0.40;41.80;;;;;;7366072;19;20010;-78
2023/01/18 00:23:20;;;;;;;22.77;12.80;;;0.50;42.50;;;;;;7369506;19;20010;-77
2023/01/18 00:25:50;;;;;;;24.35;13.80;;;0.50;42.30;;;;;;7389166;19;20022;-77
2023/01/18 00:28:23;;;;;;;22.83;13.00;;;0.40;41.70;;;;;;7363406;19;20007;-78
2023/01/18 00:30:53;;;;;;;19.70;12.32;;;0.50;42.30;;;;;;7363725;19;20023;-78
2023/01/18 00:33:25;;;;;;;22.55;12.73;;;0.40;42.10;;;;;;7366851;19;20074;-77
2023/01/18 00:35:59;;;;;;;23.00;12.88;;;0.40;42.10;;;;;;7364645;19;20007;-78
2023/01/18 00:38:30;;;;;;;24.30;12.85;;;0.40;41.70;;;;;;7367867;19;20025;-77
2023/01/18 00:40:59;;;;;;;23.45;13.00;;;0.40;42.20;;;;;;7364133;19;20014;-78
2023/01/18 00:43:38;;;;;;;23.27;12.52;;;0.40;42.40;;;;;;7388217;19;20010;-77
2023/01/18 00:46:09;;;;;;;24.90;13.15;;;0.40;42.50;;;;;;7363130;19;20017;-78
2023/01/18 00:48:43;;;;;;;22.58;13.40;;;0.40;42.40;;;;;;7363452;19;20038;-77
2023/01/18 00:51:15;;;;;;;20.05;11.93;;;0.30;41.90;;;;;;7364218;19;20507;-76
2023/01/18 00:53:47;;;;;;;17.77;11.70;;;0.30;41.50;;;;;;7364872;19;20485;-77
2023/01/18 00:56:20;;;;;;;24.88;12.55;;;0.30;42.30;;;;;;7364330;19;20044;-77
2023/01/18 00:58:55;;;;;;;24.50;13.48;;;0.30;42.20;;;;;;7384491;19;20506;-78
2023/01/18 01:01:25;;;;;;;20.80;12.45;;;0.40;42.50;;;;;;7363673;19;20015;-78
2023/01/18 01:06:59;;;;;;;20.95;12.70;;;0.50;42.50;;;;;;7360156;19;20442;-77
2023/01/18 01:09:31;;;;;;;22.98;13.50;;;0.40;42.40;;;;;;7361028;19;20022;-77
2023/01/18 01:28:23;;;;;;;22.88;13.20;;;0.40;42.40;;;;;;7362005;19;20046;-77
2023/01/18 01:30:53;;;;;;;24.92;13.55;;;0.40;42.50;;;;;;7362533;19;20114;-76
2023/01/18 01:33:23;;;;;;;25.52;14.10;;;0.30;42.40;;;;;;7363627;19;20014;-78
2023/01/18 01:36:00;;;;;;;22.45;13.18;;;0.40;42.50;;;;;;7364661;19;20016;-77
2023/01/18 01:38:30;;;;;;;29.70;15.05;;;0.40;42.50;;;;;;7365001;19;20014;-77
2023/01/18 01:41:01;;;;;;;22.63;13.73;;;0.40;42.50;;;;;;7363042;19;20411;-78
2023/01/18 01:43:44;;;;;;;24.05;13.98;;;0.40;42.50;;;;;;7386601;19;20019;-76
2023/01/18 01:46:30;;;;;;;23.58;13.98;;;0.40;42.50;;;;;;7362224;19;20014;-78
2023/01/18 01:49:04;;;;;;;20.75;13.82;;;0.40;42.40;;;;;;7360865;19;20102;-78
2023/01/18 01:51:39;;;;;;;22.15;13.43;;;0.40;42.50;;;;;;7362543;19;20481;-78
2023/01/18 01:54:14;;;;;;;23.92;14.25;;;0.30;42.20;;;;;;7364261;19;20010;-77
2023/01/18 01:56:47;;;;;;;24.00;14.57;;;0.40;42.50;;;;;;7362585;19;20033;-78
2023/01/18 01:59:18;;;;;;;24.45;14.18;;;0.40;42.50;;;;;;7360525;19;20489;-78
2023/01/18 02:01:49;;;;;;;24.20;14.40;;;0.40;42.50;;;;;;7383357;19;20010;-78
2023/01/18 02:04:19;;;;;;;27.83;15.88;;;0.30;42.40;;;;;;7365092;19;20014;-78
2023/01/18 02:06:52;;;;;;;25.33;14.60;;;0.40;42.50;;;;;;7360529;19;20015;-77
2023/01/18 02:09:22;;;;;;;26.33;14.63;;;0.40;42.50;;;;;;7359372;19;20363;-77
2023/01/18 02:11:54;;;;;;;28.58;14.48;;;0.40;42.50;;;;;;7363577;19;20022;-78
2023/01/18 02:14:28;;;;;;;26.88;15.30;;;0.30;42.40;;;;;;7364910;19;20021;-78
2023/01/18 02:17:13;;;;;;;26.10;15.45;;;0.40;42.50;;;;;;7379464;19;20022;-79
2023/01/18 02:20:05;;;;;;;28.40;15.68;;;0.40;42.50;;;;;;7385027;19;20462;-78
2023/01/18 02:23:00;;;;;;;26.52;14.85;;;0.40;42.50;;;;;;7364163;19;20355;-78
2023/01/18 02:25:56;;;;;;;27.45;16.35;;;0.50;42.60;;;;;;7364078;19;20025;-79
2023/01/18 02:28:35;;;;;;;28.00;14.98;;;0.40;42.40;;;;;;7362207;19;20022;-78
2023/01/18 02:31:11;;;;;;;28.55;15.52;;;0.40;42.50;;;;;;7362022;19;20017;-78
2023/01/18 02:33:47;;;;;;;28.02;15.90;;;0.40;42.50;;;;;;7363205;19;20027;-78
2023/01/18 02:36:25;;;;;;;31.50;16.85;;;0.50;42.60;;;;;;7363623;19;20094;-77
2023/01/18 02:38:59;;;;;;;29.77;17.23;;;0.50;42.50;;;;;;7360026;19;20414;-77
2023/01/18 02:47:11;;;;;;;28.30;15.35;;;0.40;42.50;;;;;;7359241;19;20025;-77
2023/01/18 02:49:41;;;;;;;32.72;17.02;;;0.40;42.50;;;;;;7379824;19;20022;-77
2023/01/18 02:52:38;;;;;;;29.58;16.52;;;0.40;42.70;;;;;;7360387;19;20010;-77
2023/01/18 02:55:12;;;;;;;28.48;16.08;;;0.40;42.60;;;;;;7361897;19;20350;-78
2023/01/18 02:57:42;;;;;;;33.65;18.02;;;0.40;42.50;;;;;;7359500;19;20070;-78
2023/01/18 03:00:17;;;;;;;34.05;17.10;;;0.40;42.70;;;;;;7361808;19;20022;-78
2023/01/18 03:02:50;;;;;;;35.58;17.98;;;0.40;42.50;;;;;;7360702;19;20015;-78
2023/01/18 03:05:21;;;;;;;31.08;16.35;;;0.40;42.50;;;;;;7361551;19;20019;-78
2023/01/18 03:07:56;;;;;;;32.70;17.45;;;0.40;42.50;;;;;;7379918;19;20019;-78
2023/01/18 03:10:32;;;;;;;31.17;16.15;;;0.40;42.90;;;;;;7357805;19;20010;-78
2023/01/18 03:13:08;;;;;;;30.45;17.25;;;0.40;43.10;;;;;;7361424;19;20017;-78
2023/01/18 03:15:49;;;;;;;35.17;18.40;;;0.40;43.10;;;;;;7362362;19;20376;-78
2023/01/18 03:18:27;;;;;;;32.95;16.73;;;0.40;43.40;;;;;;7357933;19;20038;-79
2023/01/18 03:20:58;;;;;;;35.45;17.50;;;0.50;43.70;;;;;;7359385;19;20568;-79
2023/01/18 03:23:41;;;;;;;28.65;15.65;;;0.40;43.30;;;;;;7362214;19;20010;-78
2023/01/18 03:26:18;;;;;;;28.83;15.82;;;0.40;43.20;;;;;;7360416;19;20021;-80
2023/01/18 03:34:31;;;;;;;31.27;16.95;;;0.40;43.80;;;;;;7370527;19;20010;-78
2023/01/18 03:37:02;;;;;;;;;;;0.30;43.70;;;;;;7368879;19;20010;-78
2023/01/18 03:39:37;;;;;;;32.97;17.10;;;0.30;43.90;;;;;;7364382;19;19918;-78
2023/01/18 03:42:12;;;;;;;30.45;16.73;;;0.30;44.10;;;;;;7366318;19;20718;-78
2023/01/18 03:44:47;;;;;;;33.70;16.65;;;0.30;44.10;;;;;;7367198;19;20033;-78
2023/01/18 03:47:20;;;;;;;30.52;17.60;;;0.30;44.10;;;;;;7366125;19;20015;-78
2023/01/18 03:49:50;;;;;;;35.60;17.05;;;0.30;44.30;;;;;;7384981;19;20034;-78
2023/01/18 03:52:25;;;;;;;35.40;17.23;;;0.30;44.50;;;;;;7365990;19;20011;-78
2023/01/18 03:55:03;;;;;;;32.80;17.67;;;0.30;44.40;;;;;;7366709;19;20815;-78
2023/01/18 03:57:36;;;;;;;34.63;18.55;;;0.30;44.70;;;;;;7366958;19;20014;-78
2023/01/18 04:00:10;;;;;;;36.65;18.35;;;0.40;44.70;;;;;;7363726;19;20661;-77
2023/01/18 04:02:44;;;;;;;31.02;17.75;;;0.40;44.40;;;;;;7366777;19;20015;-78
2023/01/18 04:05:15;;;;;;;36.95;17.75;;;0.30;44.30;;;;;;7367283;19;20007;-78
2023/01/18 04:07:45;;;;;;;32.78;17.13;;;0.30;44.40;;;;;;7386928;19;20021;-78
2023/01/18 04:10:15;;;;;;;30.90;17.30;;;0.20;44.30;;;;;;7361650;19;20021;-77
2023/01/18 04:12:45;;;;;;;33.25;17.00;;;0.20;44.20;;;;;;7366199;19;20011;-77
2023/01/18 04:15:15;;;;;;;32.35;17.27;;;0.20;44.40;;;;;;7366736;19;20018;-77
2023/01/18 04:17:48;;;;;;;31.95;18.00;;;0.20;44.50;;;;;;7365655;19;20099;-78
2023/01/18 04:20:18;;;;;;;32.47;18.45;;;0.30;44.90;;;;;;7363735;19;20015;-79
2023/01/18 04:22:53;;;;;;;32.85;17.80;;;0.30;44.50;;;;;;7387022;19;20036;-78
2023/01/18 04:25:23;;;;;;;33.00;16.75;;;0.30;45.00;;;;;;7366799;19;20022;-78
2023/01/18 04:27:53;;;;;;;33.47;17.08;;;0.30;44.10;;;;;;7364230;19;20011;-78
2023/01/18 04:30:23;;;;;;;31.35;16.98;;;0.20;44.10;;;;;;7363305;19;20098;-79
2023/01/18 04:32:55;;;;;;;35.72;17.27;;;0.20;44.00;;;;;;7365437;19;20097;-79
2023/01/18 04:35:26;;;;;;;27.08;15.63;;;0.20;44.50;;;;;;7366016;19;20015;-79
2023/01/18 04:37:56;;;;;;;30.48;17.05;;;0.20;44.00;;;;;;7390262;19;20022;-80
2023/01/18 04:40:25;;;;;;;27.23;16.20;;;0.20;43.80;;;;;;7361133;19;20053;-79
2023/01/18 04:42:56;;;;;;;29.55;16.20;;;0.20;44.00;;;;;;7363083;19;20014;-79
2023/01/18 04:45:26;;;;;;;29.15;15.68;;;0.20;43.60;;;;;;7365598;19;20112;-79
2023/01/18 04:47:59;;;;;;;27.00;15.07;;;0.20;43.60;;;;;;7363736;19;20015;-79
2023/01/18 04:50:29;;;;;;;23.88;14.40;;;0.20;43.60;;;;;;7362130;19;20682;-79
2023/01/18 04:52:59;;;;;;;24.67;14.60;;;0.20;43.20;;;;;;7375417;19;20015;-80
2023/01/18 04:55:30;;;;;;;23.80;14.15;;;0.10;42.30;;;;;;7387492;19;20492;-80
2023/01/18 04:57:59;;;;;;;22.25;14.05;;;0.20;43.00;;;;;;7363948;19;20018;-79
2023/01/18 05:00:29;;;;;;;29.83;15.35;;;0.10;42.30;;;;;;7362309;19;20032;-80
2023/01/18 05:03:02;;;;;;;21.60;13.80;;;0.10;42.40;;;;;;7365088;19;20018;-80
2023/01/18 05:05:32;;;;;;;21.48;13.13;;;0.00;42.20;;;;;;7364681;19;20551;-79
2023/01/18 05:08:02;;;;;;;17.85;11.60;;;0.00;42.10;;;;;;7363067;19;20019;-79
2023/01/18 05:10:32;;;;;;;19.20;11.85;;;-0.10;40.50;;;;;;7382028;19;20025;-79
2023/01/18 05:13:02;;;;;;;21.65;12.35;;;0.00;41.90;;;;;;7364927;19;20058;-80
2023/01/18 05:15:33;;;;;;;19.52;12.05;;;0.00;42.10;;;;;;7365081;19;20006;-79
2023/01/18 05:18:06;;;;;;;18.05;12.02;;;0.00;42.10;;;;;;7363872;19;20082;-79
2023/01/18 05:20:36;;;;;;;15.93;10.65;;;0.00;42.10;;;;;;7363275;19;20014;-80
2023/01/18 05:23:09;;;;;;;17.73;10.60;;;0.10;42.20;;;;;;7364691;19;20021;-80
2023/01/18 05:25:40;;;;;;;19.08;12.38;;;0.10;41.60;;;;;;7386040;19;20018;-81
2023/01/18 05:28:11;;;;;;;17.60;10.85;;;0.10;42.30;;;;;;7362467;19;20783;-80
2023/01/18 05:30:43;;;;;;;18.50;11.40;;;0.10;42.20;;;;;;7362088;19;20694;-81
2023/01/18 05:33:15;;;;;;;14.48;9.50;;;0.10;42.10;;;;;;7364731;19;20026;-80
2023/01/18 05:35:50;;;;;;;17.95;10.85;;;0.10;40.80;;;;;;7363554;19;20014;-80
2023/01/18 05:38:20;;;;;;;13.55;9.88;;;0.10;41.40;;;;;;7366213;19;20541;-81
2023/01/18 05:40:53;;;;;;;16.65;9.98;;;0.10;41.20;;;;;;7385108;19;20031;-81
2023/01/18 05:43:25;;;;;;;15.18;10.05;;;0.10;40.80;;;;;;7365064;19;20024;-80
2023/01/18 05:45:55;;;;;;;17.50;10.70;;;0.00;40.80;;;;;;7364150;19;20011;-82
2023/01/18 05:48:27;;;;;;;15.38;10.25;;;0.00;41.90;;;;;;7361631;19;20082;-81
2023/01/18 05:50:57;;;;;;;16.10;10.40;;;0.10;41.90;;;;;;7364671;19;20518;-81
2023/01/18 05:53:27;;;;;;;20.63;11.00;;;0.00;42.10;;;;;;7362518;19;20031;-83
2023/01/18 05:55:59;;;;;;;15.43;10.75;;;0.00;42.10;;;;;;7386706;19;20466;-81
2023/01/18 05:58:30;;;;;;;16.20;9.88;;;0.00;42.40;;;;;;7360552;19;20013;-81
2023/01/18 06:00:59;;;;;;;16.65;10.27;;;0.00;42.40;;;;;;7361231;19;20494;-81
2023/01/18 06:03:32;;;;;;;18.58;11.45;;;0.00;42.20;;;;;;7364658;19;20010;-81
2023/01/18 06:06:02;;;;;;;17.67;11.32;;;0.00;43.10;;;;;;7362398;19;20589;-82
2023/01/18 06:08:32;;;;;;;18.17;11.00;;;0.10;43.30;;;;;;7360743;19;20020;-80
2023/01/18 06:11:03;;;;;;;17.60;10.73;;;0.10;43.60;;;;;;7361625;19;20050;-81
2023/01/18 06:13:34;;;;;;;18.17;10.32;;;0.10;43.50;;;;;;7384270;19;20030;-80
2023/01/18 06:16:04;;;;;;;18.75;10.63;;;0.10;43.80;;;;;;7362157;19;20014;-81
2023/01/18 06:18:38;;;;;;;16.08;10.20;;;0.10;43.90;;;;;;7361590;19;20015;-81
2023/01/18 06:21:10;;;;;;;17.85;10.23;;;0.10;43.70;;;;;;7361078;19;20010;-80
2023/01/18 06:23:40;;;;;;;14.50;9.05;;;0.10;44.20;;;;;;7362002;19;20336;-81
2023/01/18 06:26:10;;;;;;;20.27;10.93;;;0.10;44.50;;;;;;7361222;19;20017;-82
2023/01/18 06:28:40;;;;;;;19.70;11.30;;;0.10;44.50;;;;;;7381663;19;20078;-81
2023/01/18 06:31:10;;;;;;;16.13;10.68;;;0.10;44.70;;;;;;7360102;19;20007;-81
2023/01/18 06:33:42;;;;;;;19.17;11.95;;;0.10;44.50;;;;;;7361957;19;20031;-81
2023/01/18 06:36:12;;;;;;;18.45;10.50;;;0.10;44.70;;;;;;7360801;19;20010;-80
2023/01/18 06:38:42;;;;;;;17.48;11.35;;;0.20;44.90;;;;;;7359552;19;20018;-80
2023/01/18 06:41:12;;;;;;;17.77;10.70;;;0.20;44.60;;;;;;7361026;19;20019;-81
2023/01/18 06:43:42;;;;;;;16.08;10.40;;;0.10;44.60;;;;;;7384482;19;20092;-81
2023/01/18 06:46:12;;;;;;;16.25;10.00;;;0.10;44.60;;;;;;7361172;19;20010;-81
2023/01/18 06:48:44;;;;;;;17.90;10.32;;;0.20;45.00;;;;;;7358726;19;20038;-82
2023/01/18 06:51:14;;;;;;;16.30;9.95;;;0.10;44.70;;;;;;7360290;19;20481;-81
2023/01/18 06:53:44;;;;;;;18.52;9.43;;;0.10;44.20;;;;;;7365935;19;20007;-81
2023/01/18 06:56:14;;;;;;;16.05;9.80;;;0.00;44.10;;;;;;7362345;19;20010;-81
2023/01/18 06:58:44;;;;;;;15.98;10.43;;;0.10;44.70;;;;;;7380867;19;20014;-80
2023/01/18 07:01:14;;;;;;;16.75;10.18;;;0.10;44.70;;;;;;7359374;19;20021;-82
2023/01/18 07:03:46;;;;;;;17.35;10.68;;;0.20;45.10;;;;;;7361645;19;20035;-80
2023/01/18 07:06:16;;;;;;;18.45;10.85;;;0.20;45.20;;;;;;7357757;19;20031;-81
2023/01/18 07:08:46;;;;;;;19.23;11.10;;;0.30;45.40;;;;;;7358968;19;20126;-81
2023/01/18 07:11:17;;;;;;;20.30;11.60;;;0.20;43.60;;;;;;7361481;19;20021;-81
2023/01/18 07:13:48;;;;;;;20.33;11.65;;;0.20;44.30;;;;;;7383392;19;20029;-80
2023/01/18 07:16:19;;;;;;;22.60;12.60;;;0.20;43.80;;;;;;7360206;19;20019;-81
2023/01/18 07:18:52;;;;;;;20.77;12.82;;;0.20;43.20;;;;;;7358093;19;20014;-80
2023/01/18 07:21:28;;;;;;;21.55;13.93;;;0.20;43.60;;;;;;7358839;19;20011;-81
2023/01/18 07:23:58;;;;;;;22.42;14.52;;;0.20;43.20;;;;;;7360549;19;20013;-81
2023/01/18 07:26:28;;;;;;;23.95;14.82;;;0.10;42.20;;;;;;7360273;19;20133;-80
2023/01/18 07:28:58;;;;;;;24.45;15.13;;;0.10;42.10;;;;;;7377350;19;20017;-81
2023/01/18 07:31:29;;;;;;;25.00;15.73;;;0.20;42.10;;;;;;7380567;19;20493;-79
2023/01/18 07:34:01;;;;;;;27.73;15.90;;;0.20;42.30;;;;;;7362537;19;20382;-79
2023/01/18 07:36:37;;;;;;;22.88;16.08;;;0.10;38.70;;;;;;7359292;19;20018;-79
2023/01/18 07:39:07;;;;;;;24.35;14.52;;;0.00;38.50;;;;;;7357458;19;20017;-80
2023/01/18 07:41:37;;;;;;;25.38;15.90;;;-0.10;38.80;;;;;;7360413;19;20021;-81
2023/01/18 07:44:09;;;;;;;32.42;18.25;;;-0.10;39.60;;;;;;7362125;19;20536;-81
2023/01/18 07:46:41;;;;;;;29.38;18.90;;;0.00;40.40;;;;;;7381904;19;20018;-80
2023/01/18 07:49:14;;;;;;;29.45;20.33;;;-0.10;38.60;;;;;;7358055;19;20469;-81
2023/01/18 07:51:46;;;;;;;30.77;19.80;;;0.00;40.00;;;;;;7358073;19;20021;-81
2023/01/18 07:54:17;;;;;;;29.98;18.38;;;0.00;38.80;;;;;;7361111;19;20015;-80
2023/01/18 07:56:47;;;;;;;25.02;16.80;;;0.00;38.30;;;;;;7358931;19;20077;-81
2023/01/18 07:59:17;;;;;;;29.88;18.70;;;-0.10;37.80;;;;;;7357171;19;20126;-80
2023/01/18 08:01:47;;;;;;;26.40;18.13;;;-0.10;45.70;;;;;;7379197;19;20019;-80
2023/01/18 08:04:23;;;;;;;30.00;17.92;;;-0.10;45.40;;;;;;7362028;19;20513;-80
2023/01/18 08:06:53;;;;;;;31.10;19.02;;;-0.10;40.70;;;;;;7358617;19;20859;-81
2023/01/18 08:09:23;;;;;;;27.23;17.85;;;-0.10;41.60;;;;;;7356793;19;20455;-80
2023/01/18 08:11:53;;;;;;;30.58;17.60;;;-0.10;39.90;;;;;;7358280;19;20433;-80
2023/01/18 08:14:23;;;;;;;30.00;18.95;;;0.00;38.90;;;;;;7360055;19;20024;-81
2023/01/18 08:16:53;;;;;;;25.88;16.75;;;0.00;39.00;;;;;;7385537;19;20019;-81
2023/01/18 08:19:25;;;;;;;28.23;17.85;;;-0.10;37.60;;;;;;7362888;19;20077;-80
2023/01/18 08:21:58;;;;;;;25.92;16.83;;;-0.10;39.20;;;;;;7363959;19;20402;-81
2023/01/18 08:24:27;;;;;;;26.20;16.50;;;-0.10;38.90;;;;;;7366016;19;20013;-81
2023/01/18 08:26:58;;;;;;;24.38;15.65;;;-0.10;39.50;;;;;;7365986;19;20025;-81
2023/01/18 08:29:28;;;;;;;25.70;16.23;;;0.10;40.50;;;;;;7363895;19;20014;-80
2023/01/18 08:31:59;;;;;;;23.00;15.32;;;0.00;38.30;;;;;;7386739;19;20010;-80
2023/01/18 08:34:31;;;;;;;24.30;16.45;;;-0.10;38.90;;;;;;7370474;19;20011;-80
2023/01/18 08:37:04;;;;;;;23.92;16.02;;;0.10;40.20;;;;;;7367029;19;20014;-80
2023/01/18 08:39:34;;;;;;;26.45;17.58;;;0.10;39.90;;;;;;7362393;19;20031;-81
2023/01/18 08:42:04;;;;;;;23.90;16.10;;;0.20;39.80;;;;;;7365212;19;20006;-82
2023/01/18 08:44:34;;;;;;;23.33;15.68;;;0.10;38.40;;;;;;7363688;19;20089;-81
2023/01/18 08:47:06;;;;;;;21.27;14.27;;;0.00;38.00;;;;;;7366868;19;20018;-81
2023/01/18 08:49:38;;;;;;;18.35;14.00;;;0.10;37.90;;;;;;7383203;19;20010;-81
2023/01/18 08:52:09;;;;;;;20.77;14.55;;;0.10;36.70;;;;;;7363240;19;20007;-80
2023/01/18 08:54:39;;;;;;;21.27;14.02;;;0.00;36.10;;;;;;7364513;19;20018;-81
2023/01/18 08:57:09;;;;;;;22.88;14.55;;;0.10;39.10;;;;;;7364664;19;20537;-79
2023/01/18 08:59:39;;;;;;;24.83;15.52;;;0.10;38.70;;;;;;7362553;19;20032;-79
2023/01/18 09:02:11;;;;;;;20.70;14.48;;;0.10;38.30;;;;;;7361484;19;20018;-80
2023/01/18 09:04:47;;;;;;;22.25;14.65;;;0.10;38.20;;;;;;7387856;19;20073;-79
2023/01/18 09:07:17;;;;;;;23.05;15.88;;;0.10;38.80;;;;;;7366470;19;20010;-81
2023/01/18 09:09:47;;;;;;;21.33;14.57;;;0.10;39.00;;;;;;7361363;19;20078;-80
2023/01/18 09:12:17;;;;;;;29.70;14.60;;;0.00;38.30;;;;;;7363159;19;20014;-81
2023/01/18 09:14:46;;;;;;;22.65;13.63;;;0.10;37.20;;;;;;7365359;19;20014;-80
2023/01/18 09:17:18;;;;;;;22.80;14.80;;;0.10;37.10;;;;;;7365904;19;20014;-81
2023/01/18 09:19:50;;;;;;;22.77;14.98;;;0.30;38.30;;;;;;7382484;19;20021;-80
2023/01/18 09:22:20;;;;;;;20.58;14.85;;;0.30;35.20;;;;;;7362753;19;20031;-80
2023/01/18 09:24:54;;;;;;;21.20;13.90;;;0.40;34.20;;;;;;7362542;19;20074;-80
2023/01/18 09:27:23;;;;;;;19.75;13.65;;;0.30;33.60;;;;;;7362041;19;20022;-80
2023/01/18 09:29:53;;;;;;;19.58;13.20;;;0.30;34.60;;;;;;7360036;19;20006;-80
2023/01/18 09:32:24;;;;;;;22.73;13.55;;;0.30;35.40;;;;;;7361235;19;20018;-80
2023/01/18 09:34:56;;;;;;;21.10;13.55;;;0.30;34.90;;;;;;7389151;19;20018;-81
2023/01/18 09:37:26;;;;;;;19.70;14.20;;;0.30;34.20;;;;;;7365626;19;20077;-81
2023/01/18 09:39:59;;;;;;;18.35;13.00;;;0.30;36.20;;;;;;7359057;19;20071;-80
2023/01/18 09:42:36;;;;;;;19.92;13.13;;;0.30;36.60;;;;;;7363587;19;20007;-80
2023/01/18 09:45:26;;;;;;;19.90;13.57;;;0.20;35.70;;;;;;7361555;19;20010;-82
2023/01/18 09:48:01;;;;;;;21.25;12.90;;;0.30;35.00;;;;;;7361456;19;20055;-82
2023/01/18 09:50:37;;;;;;;19.30;12.75;;;0.40;37.50;;;;;;7359662;19;20011;-80
2023/01/18 09:53:18;;;;;;;21.48;12.98;;;0.30;34.20;;;;;;7362882;19;20010;-80
2023/01/18 09:55:55;;;;;;;17.05;11.43;;;0.30;37.50;;;;;;7383163;19;20018;-80
2023/01/18 09:58:44;;;;;;;18.55;12.05;;;0.20;35.10;;;;;;7360628;19;20755;-80
2023/01/18 10:01:18;;;;;;;18.23;11.68;;;0.20;34.10;;;;;;7363347;19;20006;-80
2023/01/18 10:03:53;;;;;;;18.85;12.50;;;0.30;32.70;;;;;;7364256;19;20486;-80
2023/01/18 10:06:31;;;;;;;17.40;11.77;;;0.30;34.20;;;;;;7362203;19;20015;-80
2023/01/18 10:09:04;;;;;;;19.42;12.18;;;0.30;33.20;;;;;;7360243;19;20017;-81
2023/01/18 10:11:43;;;;;;;16.75;10.95;;;0.40;32.80;;;;;;7361238;19;20083;-81
2023/01/18 10:14:20;;;;;;;18.83;11.75;;;0.40;32.20;;;;;;7364193;19;20089;-80
2023/01/18 10:17:00;;;;;;;17.30;11.35;;;0.40;29.60;;;;;;7384637;19;20014;-80
2023/01/18 10:19:32;;;;;;;19.77;12.73;;;0.40;29.00;;;;;;7358592;19;20014;-82
2023/01/18 10:22:08;;;;;;;18.30;12.23;;;0.40;28.70;;;;;;7360038;19;20474;-80
2023/01/18 10:24:47;;;;;;;17.98;12.13;;;0.50;30.10;;;;;;7360803;19;20013;-82
2023/01/18 10:27:46;;;;;;;19.80;12.25;;;0.50;30.10;;;;;;7360719;19;20018;-81
2023/01/18 10:30:28;;;;;;;18.25;12.45;;;0.40;30.30;;;;;;7361481;19;20367;-81
2023/01/18 10:33:01;;;;;;;20.85;12.50;;;0.60;32.80;;;;;;7361475;19;20014;-79
2023/01/18 10:35:35;;;;;;;18.20;12.53;;;0.60;29.70;;;;;;7360938;19;20054;-76
2023/01/18 10:38:11;;;;;;;18.63;11.50;;;0.40;29.90;;;;;;7364800;19;20014;-79
2023/01/18 10:40:41;;;;;;;19.92;12.52;;;0.50;29.80;;;;;;7376096;19;20458;-79
2023/01/18 10:43:19;;;;;;;19.90;11.82;;;0.50;30.10;;;;;;7362188;19;20014;-78
2023/01/18 10:45:49;;;;;;;17.02;10.40;;;0.60;29.70;;;;;;7358619;19;20019;-78
2023/01/18 10:48:29;;;;;;;15.70;10.43;;;0.60;29.20;;;;;;7360285;19;20406;-78
2023/01/18 10:51:01;;;;;;;19.73;10.93;;;0.90;29.10;;;;;;7359418;19;20010;-77
2023/01/18 10:53:36;;;;;;;20.63;10.95;;;0.80;27.10;;;;;;7360806;19;20021;-77
2023/01/18 10:56:06;;;;;;;;;;;0.70;26.00;;;;;;7361572;19;20032;-78
2023/01/18 10:58:45;;;;;;;14.70;8.48;;;0.90;27.70;;;;;;7383147;19;19919;-79
2023/01/18 11:01:18;;;;;;;15.23;9.95;;;0.70;23.70;;;;;;7359059;19;20535;-76
2023/01/18 11:03:51;;;;;;;18.88;10.43;;;0.80;24.60;;;;;;7361781;19;20011;-78
2023/01/18 11:06:23;;;;;;;17.35;10.27;;;0.80;25.70;;;;;;7359805;19;20098;-77
2023/01/18 11:08:55;;;;;;;16.90;10.07;;;1.20;22.60;;;;;;7358848;19;20098;-78
2023/01/18 11:14:28;;;;;;;17.25;9.00;;;0.90;22.20;;;;;;7363590;19;20022;-76
2023/01/18 11:17:02;;;;;;;16.08;9.40;;;0.90;23.80;;;;;;7382584;19;20015;-77
2023/01/18 11:19:34;;;;;;;15.75;9.85;;;0.90;22.90;;;;;;7357899;19;20294;-77
2023/01/18 11:22:04;;;;;;;16.10;9.88;;;0.80;23.80;;;;;;7358533;19;20053;-77
2023/01/18 11:24:36;;;;;;;17.33;9.38;;;1.00;23.10;;;;;;7360178;19;20047;-76
2023/01/18 11:27:13;;;;;;;14.25;9.13;;;0.90;22.00;;;;;;7360422;19;20014;-77
2023/01/18 11:29:46;;;;;;;17.63;9.25;;;1.10;22.70;;;;;;7358247;19;20010;-77
2023/01/18 11:32:22;;;;;;;17.00;10.00;;;1.10;23.90;;;;;;7356426;19;20462;-80
2023/01/18 11:34:55;;;;;;;13.68;8.25;;;1.30;23.50;;;;;;7381441;19;20074;-78
2023/01/18 11:37:36;;;;;;;19.52;8.77;;;1.10;20.70;;;;;;7361585;19;20010;-78
2023/01/18 11:40:29;;;;;;;15.13;8.20;;;0.90;23.00;;;;;;7356180;19;20015;-77
2023/01/18 11:43:02;;;;;;;11.82;8.38;;;0.80;22.40;;;;;;7360284;19;20363;-78
2023/01/18 11:45:39;;;;;;;14.13;9.30;;;1.00;21.20;;;;;;7359724;19;20474;-78
2023/01/18 11:48:16;;;;;;;13.50;8.50;;;1.20;21.90;;;;;;7361644;19;20010;-79
2023/01/18 11:50:52;;;;;;;14.68;8.57;;;1.10;18.90;;;;;;7361868;19;20015;-79
2023/01/18 11:53:31;;;;;;;12.38;7.65;;;1.50;20.80;;;;;;7364480;19;20018;-79
2023/01/18 11:56:11;;;;;;;10.75;7.00;;;1.10;18.00;;;;;;7369535;19;20386;-79
2023/01/18 11:58:42;;;;;;;12.90;7.30;;;1.20;21.10;;;;;;7390478;19;20014;-79
2023/01/18 12:01:44;;;;;;;13.18;8.70;;;0.90;20.90;;;;;;7372015;19;20049;-80
2023/01/18 12:04:23;;;;;;;13.38;7.70;;;1.40;23.40;;;;;;7367220;19;20036;-81
2023/01/18 12:07:10;;;;;;;14.55;7.70;;;0.80;19.50;;;;;;7367182;19;20054;-78
2023/01/18 12:09:47;;;;;;;14.38;9.45;;;0.90;21.40;;;;;;7362004;19;20029;-79
2023/01/18 12:12:40;;;;;;;14.82;8.55;;;0.90;22.30;;;;;;7363187;19;20081;-80
2023/01/18 12:15:40;;;;;;;12.70;8.15;;;1.00;20.70;;;;;;7364252;19;20018;-79
2023/01/18 12:18:27;;;;;;;13.73;8.85;;;1.00;22.50;;;;;;7364838;19;20098;-81
2023/01/18 12:21:04;;;;;;;14.38;8.93;;;1.10;20.60;;;;;;7365587;19;20020;-79
2023/01/18 12:23:52;;;;;;;14.57;8.57;;;1.00;18.60;;;;;;7367549;19;20037;-81
2023/01/18 12:26:36;;;;;;;14.00;8.32;;;1.30;20.00;;;;;;7366317;19;20057;-80
2023/01/18 12:29:37;;;;;;;18.50;8.63;;;1.10;17.20;;;;;;7365058;19;20493;-79
2023/01/18 12:32:25;;;;;;;11.23;8.38;;;1.40;17.80;;;;;;7365444;19;20010;-80
2023/01/18 12:35:15;;;;;;;12.13;7.50;;;1.10;14.50;;;;;;7387285;19;20019;-80
2023/01/18 12:38:01;;;;;;;14.10;7.95;;;1.20;14.20;;;;;;7365908;19;20025;-81
2023/01/18 12:40:45;;;;;;;14.02;7.35;;;1.10;13.30;;;;;;7388183;19;20074;-79
2023/01/18 12:43:29;;;;;;;11.53;7.03;;;1.10;15.60;;;;;;7366571;19;20015;-78
2023/01/18 12:46:06;;;;;;;10.05;6.38;;;1.20;15.60;;;;;;7363347;19;20050;-79
2023/01/18 12:48:45;;;;;;;9.98;6.97;;;1.20;13.30;;;;;;7360771;19;20765;-79
2023/01/18 12:51:27;;;;;;;15.43;7.20;;;1.40;13.90;;;;;;7365720;19;20021;-78
2023/01/18 12:54:14;;;;;;;12.15;7.03;;;1.40;13.00;;;;;;7361364;19;20053;-79
2023/01/18 12:56:47;;;;;;;15.30;6.82;;;1.40;12.90;;;;;;7360736;19;20022;-80
2023/01/18 12:59:23;;;;;;;15.88;7.25;;;1.20;11.40;;;;;;7360166;19;20600;-78
2023/01/18 13:02:00;;;;;;;11.98;7.18;;;1.10;10.10;;;;;;7384727;19;20550;-79
2023/01/18 13:04:36;;;;;;;13.73;7.15;;;1.30;14.60;;;;;;7356612;19;20020;-78
2023/01/18 13:07:11;;;;;;;12.15;7.35;;;1.20;13.30;;;;;;7360341;19;20015;-78
2023/01/18 13:09:46;;;;;;;11.68;7.50;;;1.30;14.50;;;;;;7361492;19;20449;-79
2023/01/18 13:12:15;;;;;;;13.82;7.45;;;1.50;15.80;;;;;;7359291;19;20502;-79
2023/01/18 13:14:52;;;;;;;13.77;7.03;;;1.40;13.20;;;;;;7361555;19;20477;-81
2023/01/18 13:17:30;;;;;;;11.05;6.85;;;1.30;13.10;;;;;;7364709;19;20014;-79
2023/01/18 13:20:06;;;;;;;11.85;7.03;;;1.40;16.00;;;;;;7364294;19;20014;-81
2023/01/18 13:22:42;;;;;;;15.05;7.18;;;1.20;14.50;;;;;;7382208;19;20007;-79
2023/01/18 13:25:35;;;;;;;11.25;7.53;;;1.10;13.90;;;;;;7363035;19;20097;-78
2023/01/18 13:28:13;;;;;;;13.40;7.47;;;1.20;14.10;;;;;;7364537;19;20113;-78
2023/01/18 13:30:52;;;;;;;12.73;6.90;;;1.30;16.80;;;;;;7362606;19;20026;-78
2023/01/18 13:33:27;;;;;;;13.68;7.72;;;1.10;13.20;;;;;;7362793;19;20011;-77
2023/01/18 13:35:59;;;;;;;11.85;7.43;;;1.20;14.70;;;;;;7362679;19;20355;-80
2023/01/18 13:38:35;;;;;;;11.75;7.85;;;1.20;14.90;;;;;;7365852;19;20107;-78
2023/01/18 13:41:13;;;;;;;16.95;8.73;;;1.20;15.40;;;;;;7361945;19;20018;-78
2023/01/18 13:44:05;;;;;;;14.65;7.88;;;1.30;14.30;;;;;;7385412;19;20011;-77
2023/01/18 13:46:38;;;;;;;15.32;8.63;;;1.50;16.30;;;;;;7364709;19;20025;-79